• Join FlightAware (Why Join?)
  • Login
  • US Flag 
10:34PM EST


 

Airport Tracker/Info


-or-


 

Live Flight TrackerFlight Track Log ✈ RPA3496 ✈ 05-May-2014 ✈ KBOS - KPHL

Flight Track Log - Related Links

Times and Time Zones

All times are in EDT time to prevent confusion due to time zone crossing. See the RPA3496 flight status page for this flight to view local times or setup timezone preferences in your user account.

Time Position Orientation Groundspeed Altitude Reporting Facility
EDT Latitude Longitude Course Direction KTS MPH feet Rate Location/Type
12:24PM 42.3500 -71.0167 200° South 142 163 800  Level KA90
12:26PM 42.3147 -71.0839 235° Southwest 210 242 3,300 2,160 Climbing Boston Center
12:27PM 42.3843 -70.7333 180° South  Level FlightAware Approximate
12:27PM 42.2483 -71.1086 195° South 280 322 5,900  Level Boston Center
12:28PM 42.2926 -70.6870 164° South  Level FlightAware Approximate
12:29PM 42.2024 -70.6345 160° South  Level FlightAware Approximate
12:29PM 42.1008 -70.9914 149° Southeast 304 350 11,900  Level Boston Center
12:30PM 42.1097 -70.6118 200° South  Level FlightAware Approximate
12:30PM 42.0253 -70.9208 145° Southeast 325 374 15,000  Level Boston Center
12:31PM 41.9447 -70.8464 145° Southeast 348 400 17,000 2,220 Climbing Boston Center
12:32PM 41.8636 -70.7850 151° Southeast 373 429 19,500 2,460 Climbing Boston Center
12:33PM 41.7747 -70.8369 204° Southwest 361 415 22,100 2,160 Climbing Boston Center
12:34PM 41.6869 -70.9467 223° Southwest 358 412 24,000 900 Climbing Boston Center
12:35PM 41.6117 -71.0547 227° Southwest 393 452 24,000  Level Boston Center
12:36PM 41.5386 -71.1647 228° Southwest 396 456 24,000  Level Boston Center
12:37PM 41.4761 -71.2608 229° Southwest 396 456 24,000  Level Boston Center
12:38PM 41.3881 -71.3933 228° Southwest 395 455 24,000  Level Boston Center
12:39PM 41.3153 -71.5008 228° Southwest 395 455 24,000  Level Boston Center
12:40PM 41.2428 -71.6097 228° Southwest 394 453 24,000  Level Boston Center
12:41PM 41.1697 -71.7178 228° Southwest 394 453 24,000  Level Boston Center
12:42PM 41.0964 -71.8269 228° Southwest 394 453 24,000  Level Boston Center
12:43PM 41.0222 -71.9350 228° Southwest 394 453 24,000  Level Boston Center
12:44PM 40.9494 -72.0431 228° Southwest 394 453 24,000  Level Boston Center
12:45PM 40.8761 -72.1492 228° Southwest 393 452 24,000  Level Boston Center
12:46PM 40.8039 -72.2544 228° Southwest 392 451 24,000  Level Boston Center
12:47PM 40.7236 -72.3722 228° Southwest 391 450 24,000  Level Boston Center
12:48PM 40.6531 -72.4758 228° Southwest 384 442 24,000  Level Boston Center
12:49PM 40.5811 -72.5775 227° Southwest 383 441 24,000 -60 Level Boston Center
12:50PM 40.5106 -72.6817 228° Southwest 382 440 23,900 -1,020 Descending Boston Center
12:51PM 40.4378 -72.7847 227° Southwest 384 442 22,000 -1,920 Descending Boston Center
12:52PM 40.3517 -72.9072 227° Southwest 381 438 20,000 -1,020 Descending Boston Center
12:53PM 40.2831 -73.0047 227° Southwest 368 423 20,000  Level Boston Center
12:54PM 40.2117 -73.1058 227° Southwest 374 430 20,000  Level Boston Center
12:55PM 40.1467 -73.2008 228° Southwest 374 430 20,000  Level Boston Center
12:56PM 40.0753 -73.3003 227° Southwest 373 429 20,000  Level Boston Center
12:57PM 40.0050 -73.3981 227° Southwest 373 429 20,000  Level Boston Center
12:58PM 39.9297 -73.5036 227° Southwest 374 430 20,000  Level Boston Center
12:59PM 39.8606 -73.6069 229° Southwest 376 433 20,000  Level Boston Center
01:00PM 39.7956 -73.7108 231° Southwest 374 430 20,000 -660 Level Boston Center
01:01PM 39.6819 -73.7325 188° South 426 490 18,700 -1,500 Descending Boston Center
01:03PM 39.5717 -73.8000 205° Southwest 376 433 16,900 -1,380 Descending Boston Center
01:04PM 39.5558 -73.9100 259° West 319 367 15,900 -1,020 Descending Boston Center
01:05PM 39.5386 -74.0281 259° West 309 356 14,800 -1,020 Descending Washington Center
01:06PM 39.5233 -74.1333 259° West 309 356 13,900 -480 Descending Washington Center
01:07PM 39.4617 -74.2019 221° Southwest 280 322 13,900  Level Washington Center
01:08PM 39.4208 -74.2778 235° Southwest 292 336 13,900  Level Washington Center
01:09PM 39.4364 -74.3717 282° West 247 284 13,900 -240 Level Washington Center
01:10PM 39.4519 -74.4575 283° West 247 284 13,500 -1,080 Descending Washington Center
01:12PM 39.4833 -74.6333 283° West 252 290 10,700 -1,380 Descending Philadelphia TRACON
01:12PM 39.5000 -74.7167 285° West 260 299 9,500 -900 Descending Philadelphia TRACON
01:13PM 39.5167 -74.8000 285° West 256 295 9,000 -780 Descending Philadelphia TRACON
01:14PM 39.5667 -74.8500 322° Northwest 253 291 8,000 -600 Descending Philadelphia TRACON
01:15PM 39.6333 -74.8833 339° North 254 292 7,800 -960 Descending Philadelphia TRACON
01:16PM 39.7000 -74.9167 339° North 252 290 6,100 -1,560 Descending Philadelphia TRACON
01:17PM 39.7667 -74.9500 339° North 252 290 4,700 -1,560 Descending Philadelphia TRACON
01:19PM 39.8333 -74.9833 339° North 242 278 2,900 -1,200 Descending Philadelphia TRACON
01:20PM 39.8833 -75.0167 333° Northwest 187 215 2,300 -480 Descending Philadelphia TRACON
01:21PM 39.9000 -75.0833 288° West 175 201 2,000 -480 Descending Philadelphia TRACON
01:22PM 39.9000 -75.1333 270° West 155 178 1,400 -720 Descending Philadelphia TRACON
01:23PM 39.8833 -75.1833 247° West 135 155 600 -840 Descending Philadelphia TRACON